EW7645 Weather Reports


Display with metric or nautical units.
time (UTC)temp
F
wind
direction
speed
MPH
gust
MPH
rain 1hr
in
rain 24hr
in
rain mn
in
humidity
%
barometer
mb
20240519210536 79 293 9.0 21.0 0.00 0.00 0.00 23 1010.0
20240519205516 80 0 3.0 8.0 0.00 0.00 0.00 22 1010.0
20240519204516 81 0 1.0 5.0 0.00 0.00 0.00 23 1010.0
20240519203517 81 0.0 2.0 0.00 0.00 0.00 20 1009.9
20240519202516 80 90 2.0 6.0 0.00 0.00 0.00 20 1010.1
20240519201516 78 0.0 2.0 0.00 0.00 0.00 26 1010.0
20240519200536 79 0.0 1.0 0.00 0.00 0.00 19 1010.3
20240519195516 80 68 1.0 5.0 0.00 0.00 0.00 21 1010.5
20240519194516 81 23 3.0 8.0 0.00 0.00 0.00 23 1011.0
20240519193516 82 45 3.0 9.0 0.00 0.00 0.00 23 1011.1
20240519192516 83 180 4.0 8.0 0.00 0.00 0.00 23 1011.4
20240519191516 83 90 5.0 12.0 0.00 0.00 0.00 21 1011.5
20240519190536 82 158 2.0 6.0 0.00 0.00 0.00 22 1011.4
20240519185516 81 23 2.0 6.0 0.00 0.00 0.00 26 1011.6
20240519184516 80 338 2.0 4.0 0.00 0.00 0.00 24 1011.4
20240519183516 80 90 3.0 7.0 0.00 0.00 0.00 26 1011.7
20240519182536 80 203 1.0 4.0 0.00 0.00 0.00 22 1012.0
20240519181516 82 90 4.0 10.0 0.00 0.00 0.00 25 1012.7
20240519180536 80 90 2.0 8.0 0.00 0.00 0.00 26 1012.4
20240519175516 79 90 2.0 7.0 0.00 0.00 0.00 30 1012.8
20240519174516 77 113 2.0 4.0 0.00 0.00 0.00 28 1012.5
20240519173516 76 135 1.0 2.0 0.00 0.00 0.00 31 1012.6
20240519172516 76 180 1.0 5.0 0.00 0.00 0.00 25 1012.5
20240519171516 79 0.0 1.0 0.00 0.00 0.00 22 1012.9
20240519170516 79 90 2.0 4.0 0.00 0.00 0.00 20 1013.1
20240519165516 79 180 1.0 5.0 0.00 0.00 0.00 28 1013.1
20240519164516 78 180 2.0 8.0 0.00 0.00 0.00 30 1012.8
20240519163516 76 180 4.0 10.0 0.00 0.00 0.00 31 1012.5
20240519162516 75 180 5.0 11.0 0.00 0.00 0.00 35 1012.8
20240519161516 74 180 5.0 11.0 0.00 0.00 0.00 36 1012.5
20240519160516 72 180 4.0 10.0 0.00 0.00 0.00 36 1012.5
20240519155516 71 180 6.0 15.0 0.00 0.00 0.00 39 1012.7
20240519154516 70 158 3.0 9.0 0.00 0.00 0.00 43 1012.6
20240519153536 69 180 6.0 12.0 0.00 0.00 0.00 42 1012.7
20240519152516 68 203 3.0 9.0 0.00 0.00 0.00 46 1012.7
20240519151517 67 180 6.0 11.0 0.00 0.00 0.00 46 1012.6
20240519150516 67 203 5.0 11.0 0.00 0.00 0.00 46 1012.8
20240519145516 65 158 3.0 7.0 0.00 0.00 0.00 46 1012.6
20240519144516 65 180 3.0 9.0 0.00 0.00 0.00 48 1012.8
20240519143516 63 180 2.0 8.0 0.00 0.00 0.00 50 1012.5
20240519142516 62 158 2.0 6.0 0.00 0.00 0.00 53 1012.6
20240519141516 61 135 4.0 9.0 0.00 0.00 0.00 54 1012.7
20240519140516 60 158 3.0 10.0 0.00 0.00 0.00 56 1012.8
20240519135516 59 135 2.0 7.0 0.00 0.00 0.00 58 1013.0
20240519134536 59 158 2.0 7.0 0.00 0.00 0.00 57 1012.9
20240519133516 58 180 3.0 7.0 0.00 0.00 0.00 58 1013.0
20240519132516 58 203 6.0 10.0 0.00 0.00 0.00 59 1013.1
20240519131536 57 180 4.0 8.0 0.00 0.00 0.00 61 1013.3
20240519130516 56 180 4.0 10.0 0.00 0.00 0.00 61 1013.0
20240519125516 56 180 4.0 10.0 0.00 0.00 0.00 62 1013.3
20240519124516 56 158 4.0 9.0 0.00 0.00 0.00 62 1013.3
20240519123516 56 203 3.0 9.0 0.00 0.00 0.00 62 1013.5
20240519122516 56 158 3.0 10.0 0.00 0.00 0.00 62 1013.6
20240519121516 56 180 3.0 7.0 0.00 0.00 0.00 61 1013.3
20240519120536 57 180 4.0 9.0 0.00 0.00 0.00 61 1013.8
20240519115516 57 158 4.0 10.0 0.00 0.00 0.00 60 1013.9
20240519114516 57 158 4.0 8.0 0.00 0.00 0.00 59 1013.9
20240519113516 57 180 5.0 11.0 0.00 0.00 0.00 59 1014.0
20240519112516 57 180 6.0 15.0 0.00 0.00 0.00 59 1014.5
20240519111536 57 158 6.0 10.0 0.00 0.00 0.00 58 1014.7
20240519110516 57 180 7.0 17.0 0.00 0.00 0.00 58 1014.9
20240519105516 57 203 5.0 16.0 0.00 0.00 0.00 60 1014.5
20240519104516 57 158 2.0 6.0 0.00 0.00 0.00 61 1014.5
20240519103536 56 135 3.0 8.0 0.00 0.00 0.00 60 1014.6
20240519102516 56 158 3.0 7.0 0.00 0.00 0.00 60 1014.7
20240519101620 56 203 2.0 6.0 0.00 0.00 0.00 63 1015.1
20240519100516 57 158 1.0 6.0 0.00 0.00 0.00 61 1015.6
20240519095536 57 135 1.0 8.0 0.00 0.00 0.00 61 1015.5
20240519094536 57 135 2.0 7.0 0.00 0.00 0.00 60 1015.2
20240519093516 57 135 2.0 7.0 0.00 0.00 0.00 60 1014.9
20240519092516 58 158 4.0 9.0 0.00 0.00 0.00 60 1014.9
20240519091516 58 180 4.0 11.0 0.00 0.00 0.00 60 1015.5
20240519090536 58 180 4.0 10.0 0.00 0.00 0.00 60 1015.5
20240519085516 58 135 3.0 11.0 0.00 0.00 0.00 60 1015.4
20240519084516 58 158 3.0 12.0 0.00 0.00 0.00 58 1015.6
20240519083516 59 180 3.0 8.0 0.00 0.00 0.00 58 1016.0
20240519082516 59 158 3.0 7.0 0.00 0.00 0.00 56 1016.7
20240519081516 59 158 4.0 9.0 0.00 0.00 0.00 56 1015.9
20240519080516 59 135 3.0 10.0 0.00 0.00 0.00 54 1015.2
20240519075516 59 158 3.0 7.0 0.00 0.00 0.00 54 1015.5
20240519074516 59 158 4.0 9.0 0.00 0.00 0.00 53 1015.8
20240519073516 59 135 3.0 8.0 0.00 0.00 0.00 53 1016.1
20240519072516 59 0.0 1.0 0.00 0.00 0.00 52 1016.2
20240519071516 59 135 1.0 7.0 0.00 0.00 0.00 52 1015.9
20240519070516 59 180 1.0 2.0 0.00 0.00 0.00 53 1016.3
20240519065536 59 180 1.0 5.0 0.00 0.00 0.00 53 1016.5
20240519064536 59 180 1.0 4.0 0.00 0.00 0.00 54 1016.6
20240519063516 59 158 1.0 4.0 0.00 0.00 0.00 54 1016.0
20240519062516 60 0.0 3.0 0.00 0.00 0.00 53 1015.8
20240519061518 60 158 1.0 4.0 0.00 0.00 0.00 52 1015.7
20240519060516 61 90 1.0 4.0 0.00 0.00 0.00 50 1016.0
20240519055516 62 90 1.0 3.0 0.00 0.00 0.00 50 1016.6
20240519054516 63 0.0 2.0 0.00 0.00 0.00 49 1016.5
20240519053516 63 135 2.0 10.0 0.00 0.00 0.00 47 1016.6
20240519052516 63 180 4.0 8.0 0.00 0.00 0.00 46 1016.4
20240519051516 63 180 5.0 8.0 0.00 0.00 0.00 46 1016.5
20240519050517 63 180 7.0 16.0 0.00 0.00 0.00 47 1016.5
20240519045516 62 180 7.0 12.0 0.00 0.00 0.00 49 1016.4
20240519044516 62 203 6.0 13.0 0.00 0.00 0.00 49 1016.1
20240519043516 61 180 6.0 18.0 0.00 0.00 0.00 49 1016.3
20240519042516 61 180 4.0 9.0 0.00 0.00 0.00 50 1015.9
20240519041516 61 180 3.0 6.0 0.00 0.00 0.00 51 1015.9
20240519040516 62 180 2.0 7.0 0.00 0.00 0.00 51 1016.4
20240519035516 63 158 1.0 5.0 0.00 0.00 0.00 50 1016.4
20240519034516 63 158 1.0 3.0 0.00 0.00 0.00 50 1016.8
20240519033516 63 180 3.0 7.0 0.00 0.00 0.00 49 1016.5
20240519032536 64 135 4.0 10.0 0.00 0.00 0.00 49 1016.1
20240519031516 64 135 4.0 9.0 0.00 0.00 0.00 48 1016.0
20240519030516 65 158 4.0 10.0 0.00 0.00 0.00 47 1016.4
20240519025516 64 158 3.0 8.0 0.00 0.00 0.00 44 1016.5
20240519024516 64 158 3.0 7.0 0.00 0.00 0.00 45 1016.1
20240519023516 64 158 3.0 7.0 0.00 0.00 0.00 45 1016.2
20240519022516 65 158 1.0 5.0 0.00 0.00 0.00 44 1015.4
20240519021516 66 0.0 1.0 0.00 0.00 0.00 45 1015.0
20240519020516 66 0.0 2.0 0.00 0.00 0.00 43 1015.2
20240519015516 67 0.0 1.0 0.00 0.00 0.00 40 1015.3
20240519014516 68 0.0 2.0 0.00 0.00 0.00 39 1015.1
20240519013536 68 0.0 2.0 0.00 0.00 0.00 39 1015.1
20240519012516 69 0.0 3.0 0.00 0.00 0.00 37 1014.8
20240519011516 69 248 1.0 2.0 0.00 0.00 0.00 35 1014.5
20240519010516 69 180 1.0 4.0 0.00 0.00 0.00 34 1014.6
20240519005516 70 180 1.0 4.0 0.00 0.00 0.00 33 1014.8
20240519004516 70 270 3.0 7.0 0.00 0.00 0.00 32 1015.0
20240519003516 70 225 4.0 13.0 0.00 0.00 0.00 32 1014.9
20240519002516 70 180 6.0 22.0 0.00 0.00 0.00 33 1014.2
20240519001516 69 180 8.0 18.0 0.00 0.00 0.00 34 1013.5
20240519000516 69 158 4.0 11.0 0.00 0.00 0.00 38 1013.5
20240518235516 69 180 6.0 12.0 0.00 0.00 0.00 37 1013.6
20240518234516 69 180 7.0 15.0 0.00 0.00 0.00 38 1013.3
20240518233516 70 180 6.0 14.0 0.00 0.00 0.00 37 1013.0
20240518232516 71 180 7.0 16.0 0.00 0.00 0.00 31 1013.0
20240518231516 71 180 9.0 25.0 0.00 0.00 0.00 33 1012.9
20240518230516 71 180 8.0 18.0 0.00 0.00 0.00 35 1013.1
20240518225516 70 180 8.0 20.0 0.00 0.00 0.00 38 1012.5
20240518224516 70 158 6.0 16.0 0.00 0.00 0.00 42 1012.4
20240518223516 71 135 7.0 17.0 0.00 0.00 0.00 40 1012.7
20240518222516 72 135 6.0 16.0 0.00 0.00 0.00 42 1013.0
20240518221516 73 158 8.0 19.0 0.00 0.00 0.00 37 1013.3
20240518220516 73 135 6.0 13.0 0.00 0.00 0.00 39 1013.5
20240518215516 73 135 6.0 16.0 0.00 0.00 0.00 38 1013.8
20240518214516 72 135 7.0 14.0 0.00 0.00 0.00 40 1013.9
20240518213516 70 135 6.0 15.0 0.00 0.00 0.00 40 1013.9
20240518212516 70 158 6.0 16.0 0.00 0.00 0.00 39 1013.8
20240518211516 70 135 4.0 7.0 0.00 0.00 0.00 41 1014.0